sensor_id;sensor_type;location;lat;lon;timestamp;P1;durP1;ratioP1;P2;durP2;ratioP2
4726;SDS011;2377;51.734;8.950;2024-02-21T00:00:09;33.17;;;12.17;;
4726;SDS011;2377;51.734;8.950;2024-02-21T00:02:40;28.33;;;12.80;;
4726;SDS011;2377;51.734;8.950;2024-02-21T00:05:09;29.87;;;12.53;;
4726;SDS011;2377;51.734;8.950;2024-02-21T00:07:39;27.30;;;12.17;;
4726;SDS011;2377;51.734;8.950;2024-02-21T00:10:07;31.07;;;13.43;;
4726;SDS011;2377;51.734;8.950;2024-02-21T00:12:36;35.43;;;15.50;;
4726;SDS011;2377;51.734;8.950;2024-02-21T00:15:05;37.73;;;14.67;;
4726;SDS011;2377;51.734;8.950;2024-02-21T00:17:37;33.57;;;14.77;;
4726;SDS011;2377;51.734;8.950;2024-02-21T00:20:06;28.27;;;13.30;;
4726;SDS011;2377;51.734;8.950;2024-02-21T00:22:39;30.93;;;16.07;;
4726;SDS011;2377;51.734;8.950;2024-02-21T00:25:07;31.30;;;15.20;;
4726;SDS011;2377;51.734;8.950;2024-02-21T00:27:36;34.40;;;14.97;;
4726;SDS011;2377;51.734;8.950;2024-02-21T00:30:05;37.00;;;14.70;;
4726;SDS011;2377;51.734;8.950;2024-02-21T00:32:35;37.17;;;16.43;;
4726;SDS011;2377;51.734;8.950;2024-02-21T00:35:04;42.10;;;16.90;;
4726;SDS011;2377;51.734;8.950;2024-02-21T00:37:32;34.80;;;17.37;;
4726;SDS011;2377;51.734;8.950;2024-02-21T00:40:01;30.63;;;15.83;;
4726;SDS011;2377;51.734;8.950;2024-02-21T00:42:35;43.30;;;17.33;;
4726;SDS011;2377;51.734;8.950;2024-02-21T00:45:07;30.27;;;14.53;;
4726;SDS011;2377;51.734;8.950;2024-02-21T00:47:39;35.57;;;16.37;;
4726;SDS011;2377;51.734;8.950;2024-02-21T00:50:08;32.33;;;15.80;;
4726;SDS011;2377;51.734;8.950;2024-02-21T00:52:38;34.93;;;16.10;;
4726;SDS011;2377;51.734;8.950;2024-02-21T00:55:09;37.60;;;16.77;;
4726;SDS011;2377;51.734;8.950;2024-02-21T00:57:36;34.17;;;15.77;;
4726;SDS011;2377;51.734;8.950;2024-02-21T01:00:04;37.60;;;16.57;;
4726;SDS011;2377;51.734;8.950;2024-02-21T01:02:35;39.67;;;16.43;;
4726;SDS011;2377;51.734;8.950;2024-02-21T01:05:04;31.97;;;15.90;;
4726;SDS011;2377;51.734;8.950;2024-02-21T01:07:33;38.33;;;15.60;;
4726;SDS011;2377;51.734;8.950;2024-02-21T01:10:00;38.70;;;16.87;;
4726;SDS011;2377;51.734;8.950;2024-02-21T01:12:27;35.00;;;16.20;;
4726;SDS011;2377;51.734;8.950;2024-02-21T01:14:55;37.30;;;17.43;;
4726;SDS011;2377;51.734;8.950;2024-02-21T01:17:24;38.27;;;17.63;;
4726;SDS011;2377;51.734;8.950;2024-02-21T01:19:52;32.13;;;16.70;;
4726;SDS011;2377;51.734;8.950;2024-02-21T01:22:22;32.47;;;15.40;;
4726;SDS011;2377;51.734;8.950;2024-02-21T01:24:50;32.13;;;16.57;;
4726;SDS011;2377;51.734;8.950;2024-02-21T01:27:17;38.97;;;19.27;;
4726;SDS011;2377;51.734;8.950;2024-02-21T01:29:45;31.67;;;17.50;;
4726;SDS011;2377;51.734;8.950;2024-02-21T01:32:23;44.23;;;18.73;;
4726;SDS011;2377;51.734;8.950;2024-02-21T01:34:53;37.03;;;15.73;;
4726;SDS011;2377;51.734;8.950;2024-02-21T01:37:20;30.00;;;16.47;;
4726;SDS011;2377;51.734;8.950;2024-02-21T01:39:49;33.93;;;17.87;;
4726;SDS011;2377;51.734;8.950;2024-02-21T01:42:17;28.27;;;15.30;;
4726;SDS011;2377;51.734;8.950;2024-02-21T01:44:47;33.03;;;16.10;;
4726;SDS011;2377;51.734;8.950;2024-02-21T01:47:14;25.87;;;14.73;;
4726;SDS011;2377;51.734;8.950;2024-02-21T01:49:42;30.50;;;16.60;;
4726;SDS011;2377;51.734;8.950;2024-02-21T01:52:14;31.60;;;17.13;;
4726;SDS011;2377;51.734;8.950;2024-02-21T01:54:46;36.50;;;17.50;;
4726;SDS011;2377;51.734;8.950;2024-02-21T01:57:14;32.10;;;16.20;;
4726;SDS011;2377;51.734;8.950;2024-02-21T01:59:45;33.30;;;16.67;;
4726;SDS011;2377;51.734;8.950;2024-02-21T02:02:12;43.43;;;16.83;;
4726;SDS011;2377;51.734;8.950;2024-02-21T02:04:43;31.00;;;16.07;;
4726;SDS011;2377;51.734;8.950;2024-02-21T02:07:12;29.80;;;15.57;;
4726;SDS011;2377;51.734;8.950;2024-02-21T02:09:43;37.83;;;17.37;;
4726;SDS011;2377;51.734;8.950;2024-02-21T02:12:16;28.80;;;15.03;;
4726;SDS011;2377;51.734;8.950;2024-02-21T02:14:44;31.43;;;16.47;;
4726;SDS011;2377;51.734;8.950;2024-02-21T02:17:12;39.40;;;16.80;;
4726;SDS011;2377;51.734;8.950;2024-02-21T02:19:40;26.50;;;15.20;;
4726;SDS011;2377;51.734;8.950;2024-02-21T02:22:10;29.20;;;15.93;;
4726;SDS011;2377;51.734;8.950;2024-02-21T02:24:55;36.50;;;17.00;;
4726;SDS011;2377;51.734;8.950;2024-02-21T02:27:24;31.87;;;15.53;;
4726;SDS011;2377;51.734;8.950;2024-02-21T02:29:52;31.57;;;15.73;;
4726;SDS011;2377;51.734;8.950;2024-02-21T02:32:19;35.00;;;16.30;;
4726;SDS011;2377;51.734;8.950;2024-02-21T02:34:49;26.37;;;14.30;;
4726;SDS011;2377;51.734;8.950;2024-02-21T02:37:16;28.47;;;13.77;;
4726;SDS011;2377;51.734;8.950;2024-02-21T02:39:44;34.53;;;15.33;;
4726;SDS011;2377;51.734;8.950;2024-02-21T02:42:16;32.60;;;13.87;;
4726;SDS011;2377;51.734;8.950;2024-02-21T02:44:43;33.63;;;14.90;;
4726;SDS011;2377;51.734;8.950;2024-02-21T02:47:11;30.47;;;16.13;;
4726;SDS011;2377;51.734;8.950;2024-02-21T02:49:40;34.77;;;15.47;;
4726;SDS011;2377;51.734;8.950;2024-02-21T02:52:10;33.60;;;14.70;;
4726;SDS011;2377;51.734;8.950;2024-02-21T02:54:37;28.00;;;14.07;;
4726;SDS011;2377;51.734;8.950;2024-02-21T02:57:05;31.30;;;15.10;;
4726;SDS011;2377;51.734;8.950;2024-02-21T02:59:34;28.13;;;15.00;;
4726;SDS011;2377;51.734;8.950;2024-02-21T03:02:02;27.53;;;15.70;;
4726;SDS011;2377;51.734;8.950;2024-02-21T03:04:29;29.93;;;13.70;;
4726;SDS011;2377;51.734;8.950;2024-02-21T03:06:56;32.77;;;15.70;;
4726;SDS011;2377;51.734;8.950;2024-02-21T03:09:28;29.80;;;16.17;;
4726;SDS011;2377;51.734;8.950;2024-02-21T03:11:56;28.47;;;14.10;;
4726;SDS011;2377;51.734;8.950;2024-02-21T03:14:31;27.57;;;14.50;;
4726;SDS011;2377;51.734;8.950;2024-02-21T03:16:59;33.00;;;15.70;;
4726;SDS011;2377;51.734;8.950;2024-02-21T03:19:30;29.53;;;15.70;;
4726;SDS011;2377;51.734;8.950;2024-02-21T03:21:58;28.27;;;15.10;;
4726;SDS011;2377;51.734;8.950;2024-02-21T03:24:26;30.80;;;13.13;;
4726;SDS011;2377;51.734;8.950;2024-02-21T03:26:55;31.17;;;15.23;;
4726;SDS011;2377;51.734;8.950;2024-02-21T03:29:24;31.43;;;15.00;;
4726;SDS011;2377;51.734;8.950;2024-02-21T03:31:52;27.10;;;14.50;;
4726;SDS011;2377;51.734;8.950;2024-02-21T03:34:21;25.40;;;13.77;;
4726;SDS011;2377;51.734;8.950;2024-02-21T03:36:49;24.07;;;14.10;;
4726;SDS011;2377;51.734;8.950;2024-02-21T03:39:20;27.63;;;13.80;;
4726;SDS011;2377;51.734;8.950;2024-02-21T03:41:56;31.40;;;13.43;;
4726;SDS011;2377;51.734;8.950;2024-02-21T03:44:25;28.33;;;13.23;;
4726;SDS011;2377;51.734;8.950;2024-02-21T03:46:54;25.47;;;12.80;;
4726;SDS011;2377;51.734;8.950;2024-02-21T03:49:24;27.80;;;13.13;;
4726;SDS011;2377;51.734;8.950;2024-02-21T03:51:51;33.57;;;12.90;;
4726;SDS011;2377;51.734;8.950;2024-02-21T03:54:20;28.97;;;12.60;;
4726;SDS011;2377;51.734;8.950;2024-02-21T03:56:47;25.83;;;12.97;;
4726;SDS011;2377;51.734;8.950;2024-02-21T03:59:15;24.73;;;13.00;;
4726;SDS011;2377;51.734;8.950;2024-02-21T04:01:44;24.53;;;11.63;;
4726;SDS011;2377;51.734;8.950;2024-02-21T04:04:12;30.20;;;13.70;;
4726;SDS011;2377;51.734;8.950;2024-02-21T04:06:47;34.13;;;11.73;;
4726;SDS011;2377;51.734;8.950;2024-02-21T04:09:15;31.47;;;12.83;;
4726;SDS011;2377;51.734;8.950;2024-02-21T04:11:43;24.13;;;13.53;;
4726;SDS011;2377;51.734;8.950;2024-02-21T04:14:14;24.40;;;11.90;;
4726;SDS011;2377;51.734;8.950;2024-02-21T04:16:41;24.30;;;12.00;;
4726;SDS011;2377;51.734;8.950;2024-02-21T04:19:09;17.70;;;12.00;;
4726;SDS011;2377;51.734;8.950;2024-02-21T04:21:39;21.30;;;12.27;;
4726;SDS011;2377;51.734;8.950;2024-02-21T04:24:15;25.27;;;13.40;;
4726;SDS011;2377;51.734;8.950;2024-02-21T04:26:42;25.63;;;12.50;;
4726;SDS011;2377;51.734;8.950;2024-02-21T04:29:13;26.43;;;10.90;;
4726;SDS011;2377;51.734;8.950;2024-02-21T04:31:41;23.03;;;12.20;;
4726;SDS011;2377;51.734;8.950;2024-02-21T04:34:08;25.17;;;11.10;;
4726;SDS011;2377;51.734;8.950;2024-02-21T04:36:39;25.67;;;10.83;;
4726;SDS011;2377;51.734;8.950;2024-02-21T04:39:06;25.60;;;11.47;;
4726;SDS011;2377;51.734;8.950;2024-02-21T04:41:35;17.40;;;10.47;;
4726;SDS011;2377;51.734;8.950;2024-02-21T04:44:03;20.17;;;9.97;;
4726;SDS011;2377;51.734;8.950;2024-02-21T04:46:31;18.97;;;10.67;;
4726;SDS011;2377;51.734;8.950;2024-02-21T04:48:58;18.47;;;9.63;;
4726;SDS011;2377;51.734;8.950;2024-02-21T04:51:33;18.00;;;10.53;;
4726;SDS011;2377;51.734;8.950;2024-02-21T04:54:01;22.20;;;10.50;;
4726;SDS011;2377;51.734;8.950;2024-02-21T04:56:29;19.33;;;10.97;;
4726;SDS011;2377;51.734;8.950;2024-02-21T04:59:00;20.00;;;10.73;;
4726;SDS011;2377;51.734;8.950;2024-02-21T05:01:28;23.30;;;11.53;;
4726;SDS011;2377;51.734;8.950;2024-02-21T05:03:56;17.70;;;9.17;;
4726;SDS011;2377;51.734;8.950;2024-02-21T05:06:23;21.53;;;10.00;;
4726;SDS011;2377;51.734;8.950;2024-02-21T05:08:51;24.03;;;10.13;;
4726;SDS011;2377;51.734;8.950;2024-02-21T05:11:25;21.37;;;9.90;;
4726;SDS011;2377;51.734;8.950;2024-02-21T05:13:53;20.13;;;10.00;;
4726;SDS011;2377;51.734;8.950;2024-02-21T05:16:24;23.30;;;9.90;;
4726;SDS011;2377;51.734;8.950;2024-02-21T05:18:52;19.97;;;9.83;;
4726;SDS011;2377;51.734;8.950;2024-02-21T05:21:21;20.70;;;9.10;;
4726;SDS011;2377;51.734;8.950;2024-02-21T05:23:51;22.57;;;9.90;;
4726;SDS011;2377;51.734;8.950;2024-02-21T05:26:22;21.73;;;9.97;;
4726;SDS011;2377;51.734;8.950;2024-02-21T05:28:53;20.70;;;11.20;;
4726;SDS011;2377;51.734;8.950;2024-02-21T05:31:27;23.00;;;10.50;;
4726;SDS011;2377;51.734;8.950;2024-02-21T05:34:23;28.30;;;11.10;;
4726;SDS011;2377;51.734;8.950;2024-02-21T05:36:51;23.50;;;11.37;;
4726;SDS011;2377;51.734;8.950;2024-02-21T05:39:26;15.07;;;10.40;;
4726;SDS011;2377;51.734;8.950;2024-02-21T05:41:56;22.50;;;11.70;;
4726;SDS011;2377;51.734;8.950;2024-02-21T05:44:26;18.30;;;10.17;;
4726;SDS011;2377;51.734;8.950;2024-02-21T05:47:06;25.07;;;10.77;;
4726;SDS011;2377;51.734;8.950;2024-02-21T05:49:35;20.00;;;11.23;;
4726;SDS011;2377;51.734;8.950;2024-02-21T05:52:03;22.60;;;10.47;;
4726;SDS011;2377;51.734;8.950;2024-02-21T05:54:32;22.73;;;11.43;;
4726;SDS011;2377;51.734;8.950;2024-02-21T05:57:03;24.47;;;10.50;;
4726;SDS011;2377;51.734;8.950;2024-02-21T05:59:32;25.43;;;11.60;;
4726;SDS011;2377;51.734;8.950;2024-02-21T06:02:01;20.13;;;11.77;;
4726;SDS011;2377;51.734;8.950;2024-02-21T06:04:36;23.33;;;11.70;;
4726;SDS011;2377;51.734;8.950;2024-02-21T06:07:04;27.50;;;12.10;;
4726;SDS011;2377;51.734;8.950;2024-02-21T06:09:32;22.47;;;12.50;;
4726;SDS011;2377;51.734;8.950;2024-02-21T06:11:59;21.97;;;11.13;;
4726;SDS011;2377;51.734;8.950;2024-02-21T06:14:28;17.87;;;11.00;;
4726;SDS011;2377;51.734;8.950;2024-02-21T06:16:55;23.67;;;12.03;;
4726;SDS011;2377;51.734;8.950;2024-02-21T06:19:24;20.30;;;9.90;;
4726;SDS011;2377;51.734;8.950;2024-02-21T06:21:51;24.13;;;10.60;;
4726;SDS011;2377;51.734;8.950;2024-02-21T06:24:19;21.13;;;12.37;;
4726;SDS011;2377;51.734;8.950;2024-02-21T06:26:46;23.00;;;12.73;;
4726;SDS011;2377;51.734;8.950;2024-02-21T06:29:14;25.43;;;11.50;;
4726;SDS011;2377;51.734;8.950;2024-02-21T06:31:44;24.90;;;11.97;;
4726;SDS011;2377;51.734;8.950;2024-02-21T06:34:12;25.70;;;11.63;;
4726;SDS011;2377;51.734;8.950;2024-02-21T06:36:44;21.10;;;11.63;;
4726;SDS011;2377;51.734;8.950;2024-02-21T06:39:12;24.60;;;11.87;;
4726;SDS011;2377;51.734;8.950;2024-02-21T06:41:51;23.10;;;12.47;;
4726;SDS011;2377;51.734;8.950;2024-02-21T06:44:20;22.47;;;12.03;;
4726;SDS011;2377;51.734;8.950;2024-02-21T06:46:48;21.53;;;11.47;;
4726;SDS011;2377;51.734;8.950;2024-02-21T06:49:15;17.63;;;11.57;;
4726;SDS011;2377;51.734;8.950;2024-02-21T06:51:46;22.23;;;11.23;;
4726;SDS011;2377;51.734;8.950;2024-02-21T06:54:16;22.10;;;11.37;;
4726;SDS011;2377;51.734;8.950;2024-02-21T06:56:43;16.17;;;10.60;;
4726;SDS011;2377;51.734;8.950;2024-02-21T06:59:12;19.43;;;11.30;;
4726;SDS011;2377;51.734;8.950;2024-02-21T07:01:44;20.50;;;11.77;;
4726;SDS011;2377;51.734;8.950;2024-02-21T07:04:15;28.63;;;11.80;;
4726;SDS011;2377;51.734;8.950;2024-02-21T07:06:51;20.83;;;10.77;;
4726;SDS011;2377;51.734;8.950;2024-02-21T07:09:19;17.53;;;12.20;;
4726;SDS011;2377;51.734;8.950;2024-02-21T07:11:46;19.97;;;11.10;;
4726;SDS011;2377;51.734;8.950;2024-02-21T07:14:14;22.30;;;11.40;;
4726;SDS011;2377;51.734;8.950;2024-02-21T07:16:44;19.93;;;9.90;;
4726;SDS011;2377;51.734;8.950;2024-02-21T07:19:18;21.43;;;10.37;;
4726;SDS011;2377;51.734;8.950;2024-02-21T07:21:48;19.30;;;10.10;;
4726;SDS011;2377;51.734;8.950;2024-02-21T07:24:17;17.77;;;10.67;;
4726;SDS011;2377;51.734;8.950;2024-02-21T07:26:46;20.87;;;10.13;;
4726;SDS011;2377;51.734;8.950;2024-02-21T07:29:16;22.83;;;10.17;;
4726;SDS011;2377;51.734;8.950;2024-02-21T07:31:43;22.67;;;9.50;;
4726;SDS011;2377;51.734;8.950;2024-02-21T07:34:15;12.93;;;9.20;;
4726;SDS011;2377;51.734;8.950;2024-02-21T07:36:44;19.60;;;9.73;;
4726;SDS011;2377;51.734;8.950;2024-02-21T07:39:14;18.93;;;9.27;;
4726;SDS011;2377;51.734;8.950;2024-02-21T07:41:43;18.23;;;9.50;;
4726;SDS011;2377;51.734;8.950;2024-02-21T07:44:11;19.27;;;9.60;;
4726;SDS011;2377;51.734;8.950;2024-02-21T07:46:40;18.97;;;10.07;;
4726;SDS011;2377;51.734;8.950;2024-02-21T07:49:07;28.27;;;10.20;;
4726;SDS011;2377;51.734;8.950;2024-02-21T07:51:37;21.63;;;10.10;;
4726;SDS011;2377;51.734;8.950;2024-02-21T07:54:08;22.20;;;10.40;;
4726;SDS011;2377;51.734;8.950;2024-02-21T07:56:36;17.30;;;10.10;;
4726;SDS011;2377;51.734;8.950;2024-02-21T07:59:04;18.23;;;9.10;;
4726;SDS011;2377;51.734;8.950;2024-02-21T08:01:33;15.40;;;8.80;;
4726;SDS011;2377;51.734;8.950;2024-02-21T08:04:03;17.93;;;8.90;;
4726;SDS011;2377;51.734;8.950;2024-02-21T08:06:30;18.23;;;9.43;;
4726;SDS011;2377;51.734;8.950;2024-02-21T08:08:58;17.40;;;9.40;;
4726;SDS011;2377;51.734;8.950;2024-02-21T08:11:29;15.50;;;8.30;;
4726;SDS011;2377;51.734;8.950;2024-02-21T08:13:57;18.30;;;8.40;;
4726;SDS011;2377;51.734;8.950;2024-02-21T08:16:26;17.00;;;9.50;;
4726;SDS011;2377;51.734;8.950;2024-02-21T08:18:53;15.57;;;8.70;;
4726;SDS011;2377;51.734;8.950;2024-02-21T08:21:23;14.67;;;9.40;;
4726;SDS011;2377;51.734;8.950;2024-02-21T08:23:53;17.27;;;8.77;;
4726;SDS011;2377;51.734;8.950;2024-02-21T08:26:27;16.13;;;9.20;;
4726;SDS011;2377;51.734;8.950;2024-02-21T08:28:58;20.77;;;10.00;;
4726;SDS011;2377;51.734;8.950;2024-02-21T08:31:27;22.60;;;9.80;;
4726;SDS011;2377;51.734;8.950;2024-02-21T08:33:57;17.37;;;8.83;;
4726;SDS011;2377;51.734;8.950;2024-02-21T08:36:30;14.23;;;8.90;;
4726;SDS011;2377;51.734;8.950;2024-02-21T08:39:04;23.50;;;9.47;;
4726;SDS011;2377;51.734;8.950;2024-02-21T08:41:34;19.87;;;8.80;;
4726;SDS011;2377;51.734;8.950;2024-02-21T08:44:02;9.97;;;7.40;;
4726;SDS011;2377;51.734;8.950;2024-02-21T08:46:34;17.37;;;8.57;;
4726;SDS011;2377;51.734;8.950;2024-02-21T08:49:03;15.07;;;8.50;;
4726;SDS011;2377;51.734;8.950;2024-02-21T08:51:33;14.63;;;7.53;;
4726;SDS011;2377;51.734;8.950;2024-02-21T08:54:02;16.70;;;8.87;;
4726;SDS011;2377;51.734;8.950;2024-02-21T08:56:30;15.30;;;7.20;;
4726;SDS011;2377;51.734;8.950;2024-02-21T08:58:59;15.07;;;7.70;;
4726;SDS011;2377;51.734;8.950;2024-02-21T09:01:27;9.43;;;5.90;;
4726;SDS011;2377;51.734;8.950;2024-02-21T09:04:11;18.00;;;7.67;;
4726;SDS011;2377;51.734;8.950;2024-02-21T09:06:41;13.50;;;6.27;;
4726;SDS011;2377;51.734;8.950;2024-02-21T09:09:12;13.03;;;7.30;;
4726;SDS011;2377;51.734;8.950;2024-02-21T09:11:39;11.57;;;5.63;;
4726;SDS011;2377;51.734;8.950;2024-02-21T09:14:07;11.37;;;5.73;;
4726;SDS011;2377;51.734;8.950;2024-02-21T09:16:34;13.13;;;6.17;;
4726;SDS011;2377;51.734;8.950;2024-02-21T09:19:07;11.83;;;5.30;;
4726;SDS011;2377;51.734;8.950;2024-02-21T09:21:36;11.87;;;6.30;;
4726;SDS011;2377;51.734;8.950;2024-02-21T09:24:06;9.87;;;6.23;;
4726;SDS011;2377;51.734;8.950;2024-02-21T09:26:35;13.37;;;7.23;;
4726;SDS011;2377;51.734;8.950;2024-02-21T09:29:05;8.90;;;6.53;;
4726;SDS011;2377;51.734;8.950;2024-02-21T09:31:34;13.33;;;8.53;;
4726;SDS011;2377;51.734;8.950;2024-02-21T09:34:01;14.67;;;8.53;;
4726;SDS011;2377;51.734;8.950;2024-02-21T09:36:32;21.90;;;11.33;;
4726;SDS011;2377;51.734;8.950;2024-02-21T09:39:06;20.43;;;11.13;;
4726;SDS011;2377;51.734;8.950;2024-02-21T09:41:36;16.60;;;10.50;;
4726;SDS011;2377;51.734;8.950;2024-02-21T09:44:14;17.50;;;11.77;;
4726;SDS011;2377;51.734;8.950;2024-02-21T09:46:44;20.73;;;12.83;;
4726;SDS011;2377;51.734;8.950;2024-02-21T09:49:29;20.53;;;12.17;;
4726;SDS011;2377;51.734;8.950;2024-02-21T09:52:01;21.40;;;14.53;;
4726;SDS011;2377;51.734;8.950;2024-02-21T09:54:32;20.70;;;13.23;;
4726;SDS011;2377;51.734;8.950;2024-02-21T09:57:03;18.90;;;12.73;;
4726;SDS011;2377;51.734;8.950;2024-02-21T09:59:32;26.70;;;13.50;;
4726;SDS011;2377;51.734;8.950;2024-02-21T10:02:00;21.53;;;12.67;;
4726;SDS011;2377;51.734;8.950;2024-02-21T10:04:29;18.47;;;11.93;;
4726;SDS011;2377;51.734;8.950;2024-02-21T10:06:57;21.27;;;12.80;;
4726;SDS011;2377;51.734;8.950;2024-02-21T10:09:27;20.77;;;12.33;;
4726;SDS011;2377;51.734;8.950;2024-02-21T10:12:07;16.97;;;10.97;;
4726;SDS011;2377;51.734;8.950;2024-02-21T10:14:35;16.23;;;11.13;;
4726;SDS011;2377;51.734;8.950;2024-02-21T10:17:04;20.70;;;11.80;;
4726;SDS011;2377;51.734;8.950;2024-02-21T10:19:35;14.83;;;10.77;;
4726;SDS011;2377;51.734;8.950;2024-02-21T10:22:06;15.73;;;9.70;;
4726;SDS011;2377;51.734;8.950;2024-02-21T10:24:44;20.37;;;10.07;;
4726;SDS011;2377;51.734;8.950;2024-02-21T10:27:11;15.20;;;9.97;;
4726;SDS011;2377;51.734;8.950;2024-02-21T10:29:39;15.33;;;8.97;;
4726;SDS011;2377;51.734;8.950;2024-02-21T10:32:10;14.47;;;8.73;;
4726;SDS011;2377;51.734;8.950;2024-02-21T10:34:39;14.40;;;8.80;;
4726;SDS011;2377;51.734;8.950;2024-02-21T10:37:11;16.43;;;8.73;;
4726;SDS011;2377;51.734;8.950;2024-02-21T10:39:45;16.10;;;9.03;;
4726;SDS011;2377;51.734;8.950;2024-02-21T10:42:14;17.30;;;7.40;;
4726;SDS011;2377;51.734;8.950;2024-02-21T10:44:48;11.73;;;6.67;;
4726;SDS011;2377;51.734;8.950;2024-02-21T10:47:18;15.30;;;7.80;;
4726;SDS011;2377;51.734;8.950;2024-02-21T10:49:56;11.43;;;6.57;;
4726;SDS011;2377;51.734;8.950;2024-02-21T10:52:37;14.20;;;6.40;;
4726;SDS011;2377;51.734;8.950;2024-02-21T10:55:26;12.87;;;5.90;;
4726;SDS011;2377;51.734;8.950;2024-02-21T10:58:03;13.30;;;5.87;;
4726;SDS011;2377;51.734;8.950;2024-02-21T11:00:31;15.00;;;5.53;;
4726;SDS011;2377;51.734;8.950;2024-02-21T11:03:04;9.23;;;4.87;;
4726;SDS011;2377;51.734;8.950;2024-02-21T11:05:33;9.63;;;5.40;;
4726;SDS011;2377;51.734;8.950;2024-02-21T11:08:05;7.90;;;4.30;;
4726;SDS011;2377;51.734;8.950;2024-02-21T11:10:36;14.27;;;4.77;;
4726;SDS011;2377;51.734;8.950;2024-02-21T11:13:07;9.57;;;4.90;;
4726;SDS011;2377;51.734;8.950;2024-02-21T11:15:35;9.10;;;4.40;;
4726;SDS011;2377;51.734;8.950;2024-02-21T11:18:03;10.93;;;4.77;;
4726;SDS011;2377;51.734;8.950;2024-02-21T11:20:32;10.70;;;4.50;;
4726;SDS011;2377;51.734;8.950;2024-02-21T11:23:05;9.37;;;5.00;;
4726;SDS011;2377;51.734;8.950;2024-02-21T11:25:53;12.00;;;4.50;;
4726;SDS011;2377;51.734;8.950;2024-02-21T11:28:32;11.40;;;4.63;;
4726;SDS011;2377;51.734;8.950;2024-02-21T11:31:08;13.33;;;4.47;;
4726;SDS011;2377;51.734;8.950;2024-02-21T11:33:39;9.07;;;4.40;;
4726;SDS011;2377;51.734;8.950;2024-02-21T11:36:10;5.40;;;3.40;;
4726;SDS011;2377;51.734;8.950;2024-02-21T11:38:38;6.80;;;3.17;;
4726;SDS011;2377;51.734;8.950;2024-02-21T11:41:09;8.73;;;4.47;;
4726;SDS011;2377;51.734;8.950;2024-02-21T11:43:38;7.00;;;3.70;;
4726;SDS011;2377;51.734;8.950;2024-02-21T11:46:12;8.43;;;4.20;;
4726;SDS011;2377;51.734;8.950;2024-02-21T11:48:42;7.27;;;3.77;;
4726;SDS011;2377;51.734;8.950;2024-02-21T11:51:20;7.83;;;3.90;;
4726;SDS011;2377;51.734;8.950;2024-02-21T11:53:52;7.10;;;3.93;;
4726;SDS011;2377;51.734;8.950;2024-02-21T11:56:26;9.80;;;3.80;;
4726;SDS011;2377;51.734;8.950;2024-02-21T11:58:55;12.00;;;4.30;;
4726;SDS011;2377;51.734;8.950;2024-02-21T12:01:26;5.60;;;3.37;;
4726;SDS011;2377;51.734;8.950;2024-02-21T12:03:54;8.87;;;3.53;;
4726;SDS011;2377;51.734;8.950;2024-02-21T12:06:22;11.20;;;3.70;;
4726;SDS011;2377;51.734;8.950;2024-02-21T12:08:50;6.27;;;3.10;;
4726;SDS011;2377;51.734;8.950;2024-02-21T12:11:29;4.93;;;2.70;;
4726;SDS011;2377;51.734;8.950;2024-02-21T12:14:00;7.00;;;3.47;;
4726;SDS011;2377;51.734;8.950;2024-02-21T12:16:30;6.43;;;3.00;;
4726;SDS011;2377;51.734;8.950;2024-02-21T12:18:59;10.30;;;3.20;;
4726;SDS011;2377;51.734;8.950;2024-02-21T12:21:29;6.57;;;3.00;;
4726;SDS011;2377;51.734;8.950;2024-02-21T12:24:11;8.90;;;3.87;;
4726;SDS011;2377;51.734;8.950;2024-02-21T12:26:42;6.17;;;3.40;;
4726;SDS011;2377;51.734;8.950;2024-02-21T12:29:09;6.67;;;3.00;;
4726;SDS011;2377;51.734;8.950;2024-02-21T12:31:37;7.70;;;3.27;;
4726;SDS011;2377;51.734;8.950;2024-02-21T12:34:07;6.30;;;2.87;;
4726;SDS011;2377;51.734;8.950;2024-02-21T12:36:35;5.53;;;2.83;;
4726;SDS011;2377;51.734;8.950;2024-02-21T12:39:12;11.60;;;3.67;;
4726;SDS011;2377;51.734;8.950;2024-02-21T12:41:44;8.53;;;3.53;;
4726;SDS011;2377;51.734;8.950;2024-02-21T12:44:14;9.63;;;3.90;;
4726;SDS011;2377;51.734;8.950;2024-02-21T12:46:43;12.80;;;3.73;;
4726;SDS011;2377;51.734;8.950;2024-02-21T12:49:25;9.93;;;3.23;;
4726;SDS011;2377;51.734;8.950;2024-02-21T12:51:55;9.50;;;3.20;;
4726;SDS011;2377;51.734;8.950;2024-02-21T12:54:22;11.63;;;3.90;;
4726;SDS011;2377;51.734;8.950;2024-02-21T12:56:52;5.77;;;3.33;;
4726;SDS011;2377;51.734;8.950;2024-02-21T12:59:20;4.87;;;3.40;;
4726;SDS011;2377;51.734;8.950;2024-02-21T13:01:49;7.93;;;3.27;;
4726;SDS011;2377;51.734;8.950;2024-02-21T13:04:17;11.13;;;4.03;;
4726;SDS011;2377;51.734;8.950;2024-02-21T13:06:46;9.30;;;3.57;;
4726;SDS011;2377;51.734;8.950;2024-02-21T13:09:15;6.33;;;3.10;;
4726;SDS011;2377;51.734;8.950;2024-02-21T13:11:45;9.27;;;3.80;;
4726;SDS011;2377;51.734;8.950;2024-02-21T13:14:17;5.70;;;3.90;;
4726;SDS011;2377;51.734;8.950;2024-02-21T13:16:52;8.33;;;3.43;;
4726;SDS011;2377;51.734;8.950;2024-02-21T13:19:20;5.73;;;3.20;;
4726;SDS011;2377;51.734;8.950;2024-02-21T13:21:47;8.97;;;3.53;;
4726;SDS011;2377;51.734;8.950;2024-02-21T13:24:16;11.30;;;4.27;;
4726;SDS011;2377;51.734;8.950;2024-02-21T13:26:46;7.00;;;3.20;;
4726;SDS011;2377;51.734;8.950;2024-02-21T13:29:13;7.77;;;3.47;;
4726;SDS011;2377;51.734;8.950;2024-02-21T13:31:43;8.33;;;3.20;;
4726;SDS011;2377;51.734;8.950;2024-02-21T13:34:16;7.87;;;3.93;;
4726;SDS011;2377;51.734;8.950;2024-02-21T13:36:44;8.37;;;3.20;;
4726;SDS011;2377;51.734;8.950;2024-02-21T13:39:14;9.10;;;4.03;;
4726;SDS011;2377;51.734;8.950;2024-02-21T13:41:49;7.23;;;3.70;;
4726;SDS011;2377;51.734;8.950;2024-02-21T13:44:24;12.43;;;4.23;;
4726;SDS011;2377;51.734;8.950;2024-02-21T13:46:53;5.77;;;3.20;;
4726;SDS011;2377;51.734;8.950;2024-02-21T13:49:21;11.13;;;2.93;;
4726;SDS011;2377;51.734;8.950;2024-02-21T13:51:51;7.93;;;2.97;;
4726;SDS011;2377;51.734;8.950;2024-02-21T13:54:20;11.83;;;3.20;;
4726;SDS011;2377;51.734;8.950;2024-02-21T13:56:48;9.60;;;4.00;;
4726;SDS011;2377;51.734;8.950;2024-02-21T13:59:16;7.80;;;4.03;;
4726;SDS011;2377;51.734;8.950;2024-02-21T14:01:44;11.00;;;3.40;;
4726;SDS011;2377;51.734;8.950;2024-02-21T14:04:15;6.73;;;3.13;;
4726;SDS011;2377;51.734;8.950;2024-02-21T14:06:44;8.20;;;3.27;;
4726;SDS011;2377;51.734;8.950;2024-02-21T14:09:12;10.63;;;3.60;;
4726;SDS011;2377;51.734;8.950;2024-02-21T14:11:39;10.20;;;3.70;;
4726;SDS011;2377;51.734;8.950;2024-02-21T14:14:10;8.80;;;3.80;;
4726;SDS011;2377;51.734;8.950;2024-02-21T14:16:40;12.30;;;3.33;;
4726;SDS011;2377;51.734;8.950;2024-02-21T14:19:07;17.87;;;3.40;;
4726;SDS011;2377;51.734;8.950;2024-02-21T14:21:39;8.90;;;3.37;;
4726;SDS011;2377;51.734;8.950;2024-02-21T14:24:07;9.87;;;3.23;;
4726;SDS011;2377;51.734;8.950;2024-02-21T14:26:36;7.40;;;3.40;;
4726;SDS011;2377;51.734;8.950;2024-02-21T14:29:04;11.83;;;3.70;;
4726;SDS011;2377;51.734;8.950;2024-02-21T14:31:34;7.30;;;3.40;;
4726;SDS011;2377;51.734;8.950;2024-02-21T14:34:03;9.80;;;3.27;;
4726;SDS011;2377;51.734;8.950;2024-02-21T14:36:32;7.23;;;3.47;;
4726;SDS011;2377;51.734;8.950;2024-02-21T14:39:04;7.53;;;3.30;;
4726;SDS011;2377;51.734;8.950;2024-02-21T14:41:31;11.03;;;3.63;;
4726;SDS011;2377;51.734;8.950;2024-02-21T14:44:00;11.50;;;4.20;;
4726;SDS011;2377;51.734;8.950;2024-02-21T14:46:29;7.27;;;3.60;;
4726;SDS011;2377;51.734;8.950;2024-02-21T14:48:57;10.40;;;4.50;;
4726;SDS011;2377;51.734;8.950;2024-02-21T14:51:26;10.60;;;4.10;;
4726;SDS011;2377;51.734;8.950;2024-02-21T14:53:55;9.77;;;4.17;;
4726;SDS011;2377;51.734;8.950;2024-02-21T14:56:27;11.50;;;4.30;;
4726;SDS011;2377;51.734;8.950;2024-02-21T14:58:57;7.50;;;4.60;;
4726;SDS011;2377;51.734;8.950;2024-02-21T15:01:26;11.77;;;4.73;;
4726;SDS011;2377;51.734;8.950;2024-02-21T15:03:53;10.93;;;4.73;;
4726;SDS011;2377;51.734;8.950;2024-02-21T15:06:21;9.23;;;4.20;;
4726;SDS011;2377;51.734;8.950;2024-02-21T15:08:50;14.70;;;4.10;;
4726;SDS011;2377;51.734;8.950;2024-02-21T15:11:25;14.20;;;4.50;;
4726;SDS011;2377;51.734;8.950;2024-02-21T15:13:53;8.00;;;3.70;;